sensor_id;sensor_type;location;lat;lon;timestamp;temperature;humidity
75088;HTU21D;63664;44.868;40.600;2023-02-15T00:02:08;0.57;93.24
75088;HTU21D;63664;44.868;40.600;2023-02-15T00:04:34;0.54;93.51
75088;HTU21D;63664;44.868;40.600;2023-02-15T00:07:14;0.52;93.39
75088;HTU21D;63664;44.868;40.600;2023-02-15T00:09:41;0.52;93.39
75088;HTU21D;63664;44.868;40.600;2023-02-15T00:12:09;0.50;93.45
75088;HTU21D;63664;44.868;40.600;2023-02-15T00:14:35;0.49;93.43
75088;HTU21D;63664;44.868;40.600;2023-02-15T00:17:02;0.50;93.43
75088;HTU21D;63664;44.868;40.600;2023-02-15T00:19:28;0.50;93.48
75088;HTU21D;63664;44.868;40.600;2023-02-15T00:21:55;0.50;93.56
75088;HTU21D;63664;44.868;40.600;2023-02-15T00:24:21;0.49;93.48
75088;HTU21D;63664;44.868;40.600;2023-02-15T00:26:50;0.49;93.48
75088;HTU21D;63664;44.868;40.600;2023-02-15T00:29:17;0.47;93.53
75088;HTU21D;63664;44.868;40.600;2023-02-15T00:31:45;0.47;93.53
75088;HTU21D;63664;44.868;40.600;2023-02-15T00:34:15;0.48;93.53
75088;HTU21D;63664;44.868;40.600;2023-02-15T00:36:45;0.47;93.61
75088;HTU21D;63664;44.868;40.600;2023-02-15T00:39:14;0.48;93.57
75088;HTU21D;63664;44.868;40.600;2023-02-15T00:41:44;0.48;93.56
75088;HTU21D;63664;44.868;40.600;2023-02-15T00:44:11;0.47;93.68
75088;HTU21D;63664;44.868;40.600;2023-02-15T00:46:38;0.46;93.60
75088;HTU21D;63664;44.868;40.600;2023-02-15T00:49:04;0.47;93.64
75088;HTU21D;63664;44.868;40.600;2023-02-15T00:51:36;0.47;93.63
75088;HTU21D;63664;44.868;40.600;2023-02-15T00:54:05;0.47;93.65
75088;HTU21D;63664;44.868;40.600;2023-02-15T00:56:33;0.46;93.63
75088;HTU21D;63664;44.868;40.600;2023-02-15T00:59:02;0.44;93.68
75088;HTU21D;63664;44.868;40.600;2023-02-15T01:01:34;0.44;93.69
75088;HTU21D;63664;44.868;40.600;2023-02-15T01:04:01;0.45;93.71
75088;HTU21D;63664;44.868;40.600;2023-02-15T01:06:29;0.44;93.74
75088;HTU21D;63664;44.868;40.600;2023-02-15T01:08:55;0.44;93.75
75088;HTU21D;63664;44.868;40.600;2023-02-15T01:11:23;0.44;93.75
75088;HTU21D;63664;44.868;40.600;2023-02-15T01:13:52;0.44;93.76
75088;HTU21D;63664;44.868;40.600;2023-02-15T01:16:23;0.44;93.77
75088;HTU21D;63664;44.868;40.600;2023-02-15T01:18:53;0.44;93.75
75088;HTU21D;63664;44.868;40.600;2023-02-15T01:21:22;0.45;93.90
75088;HTU21D;63664;44.868;40.600;2023-02-15T01:23:49;0.44;93.85
75088;HTU21D;63664;44.868;40.600;2023-02-15T01:26:17;0.42;93.92
75088;HTU21D;63664;44.868;40.600;2023-02-15T01:28:51;0.43;93.91
75088;HTU21D;63664;44.868;40.600;2023-02-15T01:31:20;0.43;93.94
75088;HTU21D;63664;44.868;40.600;2023-02-15T01:33:49;0.42;93.94
75088;HTU21D;63664;44.868;40.600;2023-02-15T01:36:15;0.44;93.96
75088;HTU21D;63664;44.868;40.600;2023-02-15T01:38:43;0.46;93.98
75088;HTU21D;63664;44.868;40.600;2023-02-15T01:41:10;0.44;93.99
75088;HTU21D;63664;44.868;40.600;2023-02-15T01:44:40;0.44;93.99
75088;HTU21D;63664;44.868;40.600;2023-02-15T01:46:55;0.45;93.96
75088;HTU21D;63664;44.868;40.600;2023-02-15T01:49:24;0.43;93.98
75088;HTU21D;63664;44.868;40.600;2023-02-15T01:51:57;0.42;94.22
75088;HTU21D;63664;44.868;40.600;2023-02-15T01:54:31;0.43;94.14
75088;HTU21D;63664;44.868;40.600;2023-02-15T01:57:13;0.44;94.10
75088;HTU21D;63664;44.868;40.600;2023-02-15T01:59:53;0.44;94.08
75088;HTU21D;63664;44.868;40.600;2023-02-15T02:02:20;0.45;94.11
75088;HTU21D;63664;44.868;40.600;2023-02-15T02:04:59;0.42;93.90
75088;HTU21D;63664;44.868;40.600;2023-02-15T02:07:33;0.40;93.98
75088;HTU21D;63664;44.868;40.600;2023-02-15T02:10:02;0.40;94.11
75088;HTU21D;63664;44.868;40.600;2023-02-15T02:12:39;0.39;94.11
75088;HTU21D;63664;44.868;40.600;2023-02-15T02:15:08;0.42;94.10
75088;HTU21D;63664;44.868;40.600;2023-02-15T02:18:02;0.44;94.11
75088;HTU21D;63664;44.868;40.600;2023-02-15T02:29:33;0.44;94.15
75088;HTU21D;63664;44.868;40.600;2023-02-15T02:32:31;0.44;94.15
75088;HTU21D;63664;44.868;40.600;2023-02-15T02:35:08;0.45;94.17
75088;HTU21D;63664;44.868;40.600;2023-02-15T02:38:02;0.45;94.20
75088;HTU21D;63664;44.868;40.600;2023-02-15T02:40:41;0.46;94.22
75088;HTU21D;63664;44.868;40.600;2023-02-15T02:43:18;0.48;94.27
75088;HTU21D;63664;44.868;40.600;2023-02-15T02:45:57;0.49;94.29
75088;HTU21D;63664;44.868;40.600;2023-02-15T02:48:33;0.47;94.33
75088;HTU21D;63664;44.868;40.600;2023-02-15T02:51:00;0.47;94.33
75088;HTU21D;63664;44.868;40.600;2023-02-15T02:53:30;0.48;94.38
75088;HTU21D;63664;44.868;40.600;2023-02-15T02:56:09;0.48;94.40
75088;HTU21D;63664;44.868;40.600;2023-02-15T02:58:52;0.49;94.43
75088;HTU21D;63664;44.868;40.600;2023-02-15T03:01:23;0.50;94.43
75088;HTU21D;63664;44.868;40.600;2023-02-15T03:04:07;0.50;94.51
75088;HTU21D;63664;44.868;40.600;2023-02-15T03:09:33;0.53;94.51
75088;HTU21D;63664;44.868;40.600;2023-02-15T03:12:21;0.52;94.48
75088;HTU21D;63664;44.868;40.600;2023-02-15T03:15:03;0.51;94.51
75088;HTU21D;63664;44.868;40.600;2023-02-15T03:17:37;0.51;94.57
75088;HTU21D;63664;44.868;40.600;2023-02-15T03:20:20;0.50;94.63
75088;HTU21D;63664;44.868;40.600;2023-02-15T03:22:55;0.52;94.63
75088;HTU21D;63664;44.868;40.600;2023-02-15T03:25:27;0.52;94.66
75088;HTU21D;63664;44.868;40.600;2023-02-15T03:28:11;0.52;94.71
75088;HTU21D;63664;44.868;40.600;2023-02-15T03:30:45;0.54;94.73
75088;HTU21D;63664;44.868;40.600;2023-02-15T03:33:15;0.54;94.77
75088;HTU21D;63664;44.868;40.600;2023-02-15T03:35:53;0.54;94.78
75088;HTU21D;63664;44.868;40.600;2023-02-15T03:38:33;0.54;94.84
75088;HTU21D;63664;44.868;40.600;2023-02-15T03:41:02;0.54;94.83
75088;HTU21D;63664;44.868;40.600;2023-02-15T03:46:32;0.53;94.91
75088;HTU21D;63664;44.868;40.600;2023-02-15T03:49:10;0.53;94.91
75088;HTU21D;63664;44.868;40.600;2023-02-15T03:51:40;0.54;94.94
75088;HTU21D;63664;44.868;40.600;2023-02-15T03:54:12;0.55;94.98
75088;HTU21D;63664;44.868;40.600;2023-02-15T03:57:03;0.51;94.75
75088;HTU21D;63664;44.868;40.600;2023-02-15T03:59:47;0.48;94.88
75088;HTU21D;63664;44.868;40.600;2023-02-15T04:02:55;0.47;94.94
75088;HTU21D;63664;44.868;40.600;2023-02-15T04:05:24;0.46;94.99
75088;HTU21D;63664;44.868;40.600;2023-02-15T04:07:50;0.47;95.04
75088;HTU21D;63664;44.868;40.600;2023-02-15T04:10:17;0.49;95.10
75088;HTU21D;63664;44.868;40.600;2023-02-15T04:13:04;0.49;95.12
75088;HTU21D;63664;44.868;40.600;2023-02-15T04:15:33;0.48;95.15
75088;HTU21D;63664;44.868;40.600;2023-02-15T04:18:20;0.48;95.17
75088;HTU21D;63664;44.868;40.600;2023-02-15T04:20:49;0.47;95.19
75088;HTU21D;63664;44.868;40.600;2023-02-15T04:23:34;0.48;95.22
75088;HTU21D;63664;44.868;40.600;2023-02-15T04:26:21;0.48;95.25
75088;HTU21D;63664;44.868;40.600;2023-02-15T04:28:47;0.47;95.26
75088;HTU21D;63664;44.868;40.600;2023-02-15T04:31:16;0.48;95.30
75088;HTU21D;63664;44.868;40.600;2023-02-15T04:33:44;0.46;95.34
75088;HTU21D;63664;44.868;40.600;2023-02-15T04:36:13;0.47;95.38
75088;HTU21D;63664;44.868;40.600;2023-02-15T04:38:40;0.48;95.42
75088;HTU21D;63664;44.868;40.600;2023-02-15T04:41:08;0.46;95.43
75088;HTU21D;63664;44.868;40.600;2023-02-15T04:43:38;0.48;95.42
75088;HTU21D;63664;44.868;40.600;2023-02-15T04:46:05;0.47;95.46
75088;HTU21D;63664;44.868;40.600;2023-02-15T04:48:31;0.47;95.47
75088;HTU21D;63664;44.868;40.600;2023-02-15T04:51:04;0.48;95.50
75088;HTU21D;63664;44.868;40.600;2023-02-15T04:53:31;0.49;95.50
75088;HTU21D;63664;44.868;40.600;2023-02-15T04:55:57;0.50;95.52
75088;HTU21D;63664;44.868;40.600;2023-02-15T04:58:26;0.50;95.55
75088;HTU21D;63664;44.868;40.600;2023-02-15T05:00:59;0.50;95.58
75088;HTU21D;63664;44.868;40.600;2023-02-15T05:03:25;0.52;95.59
75088;HTU21D;63664;44.868;40.600;2023-02-15T05:05:51;0.53;95.60
75088;HTU21D;63664;44.868;40.600;2023-02-15T05:08:18;0.52;95.60
75088;HTU21D;63664;44.868;40.600;2023-02-15T05:10:44;0.53;95.60
75088;HTU21D;63664;44.868;40.600;2023-02-15T05:13:12;0.57;95.63
75088;HTU21D;63664;44.868;40.600;2023-02-15T05:15:41;0.58;95.65
75088;HTU21D;63664;44.868;40.600;2023-02-15T05:18:07;0.60;95.63
75088;HTU21D;63664;44.868;40.600;2023-02-15T05:20:36;0.61;95.62
75088;HTU21D;63664;44.868;40.600;2023-02-15T05:23:07;0.61;95.61
75088;HTU21D;63664;44.868;40.600;2023-02-15T05:25:33;0.63;95.63
75088;HTU21D;63664;44.868;40.600;2023-02-15T05:28:18;0.66;95.58
75088;HTU21D;63664;44.868;40.600;2023-02-15T05:33:30;0.73;95.55
75088;HTU21D;63664;44.868;40.600;2023-02-15T05:35:56;0.75;95.50
75088;HTU21D;63664;44.868;40.600;2023-02-15T05:38:24;0.77;95.48
75088;HTU21D;63664;44.868;40.600;2023-02-15T05:40:56;0.78;95.49
75088;HTU21D;63664;44.868;40.600;2023-02-15T05:43:25;0.80;95.50
75088;HTU21D;63664;44.868;40.600;2023-02-15T05:45:55;0.82;95.49
75088;HTU21D;63664;44.868;40.600;2023-02-15T05:48:23;0.87;95.52
75088;HTU21D;63664;44.868;40.600;2023-02-15T05:51:06;0.94;95.46
75088;HTU21D;63664;44.868;40.600;2023-02-15T05:53:34;0.98;95.36
75088;HTU21D;63664;44.868;40.600;2023-02-15T05:56:07;1.04;95.33
75088;HTU21D;63664;44.868;40.600;2023-02-15T05:58:37;1.08;95.29
75088;HTU21D;63664;44.868;40.600;2023-02-15T06:01:10;1.14;95.24
75088;HTU21D;63664;44.868;40.600;2023-02-15T06:03:37;1.21;95.19
75088;HTU21D;63664;44.868;40.600;2023-02-15T06:06:03;1.25;95.14
75088;HTU21D;63664;44.868;40.600;2023-02-15T06:08:36;1.29;95.10
75088;HTU21D;63664;44.868;40.600;2023-02-15T06:11:06;1.35;95.08
75088;HTU21D;63664;44.868;40.600;2023-02-15T06:13:32;1.39;95.01
75088;HTU21D;63664;44.868;40.600;2023-02-15T06:16:04;1.45;94.96
75088;HTU21D;63664;44.868;40.600;2023-02-15T06:18:32;1.50;94.94
75088;HTU21D;63664;44.868;40.600;2023-02-15T06:20:59;1.50;94.87
75088;HTU21D;63664;44.868;40.600;2023-02-15T06:23:33;1.47;94.90
75088;HTU21D;63664;44.868;40.600;2023-02-15T06:25:59;1.43;94.98
75088;HTU21D;63664;44.868;40.600;2023-02-15T06:28:28;1.39;95.07
75088;HTU21D;63664;44.868;40.600;2023-02-15T06:30:54;1.34;95.21
75088;HTU21D;63664;44.868;40.600;2023-02-15T06:33:21;1.27;95.34
75088;HTU21D;63664;44.868;40.600;2023-02-15T06:35:48;1.24;95.46
75088;HTU21D;63664;44.868;40.600;2023-02-15T06:38:16;1.23;95.55
75088;HTU21D;63664;44.868;40.600;2023-02-15T06:40:46;1.24;95.55
75088;HTU21D;63664;44.868;40.600;2023-02-15T06:43:14;1.26;95.59
75088;HTU21D;63664;44.868;40.600;2023-02-15T06:45:43;1.33;95.52
75088;HTU21D;63664;44.868;40.600;2023-02-15T06:48:17;1.38;95.44
75088;HTU21D;63664;44.868;40.600;2023-02-15T06:50:46;1.45;95.36
75088;HTU21D;63664;44.868;40.600;2023-02-15T06:53:18;1.51;95.23
75088;HTU21D;63664;44.868;40.600;2023-02-15T06:55:45;1.60;95.16
75088;HTU21D;63664;44.868;40.600;2023-02-15T06:58:13;1.67;95.04
75088;HTU21D;63664;44.868;40.600;2023-02-15T07:00:44;1.72;94.98
75088;HTU21D;63664;44.868;40.600;2023-02-15T07:03:16;1.77;94.89
75088;HTU21D;63664;44.868;40.600;2023-02-15T07:05:49;1.78;94.74
75088;HTU21D;63664;44.868;40.600;2023-02-15T07:08:25;1.80;94.75
75088;HTU21D;63664;44.868;40.600;2023-02-15T07:10:59;1.85;94.73
75088;HTU21D;63664;44.868;40.600;2023-02-15T07:13:50;1.90;94.65
75088;HTU21D;63664;44.868;40.600;2023-02-15T07:16:21;1.87;94.65
75088;HTU21D;63664;44.868;40.600;2023-02-15T07:18:48;1.87;94.75
75088;HTU21D;63664;44.868;40.600;2023-02-15T07:21:16;1.91;94.78
75088;HTU21D;63664;44.868;40.600;2023-02-15T07:23:42;1.94;94.80
75088;HTU21D;63664;44.868;40.600;2023-02-15T07:26:09;1.99;94.77
75088;HTU21D;63664;44.868;40.600;2023-02-15T07:28:38;2.05;94.71
75088;HTU21D;63664;44.868;40.600;2023-02-15T07:31:06;2.06;94.65
75088;HTU21D;63664;44.868;40.600;2023-02-15T07:33:35;2.05;94.67
75088;HTU21D;63664;44.868;40.600;2023-02-15T07:36:05;2.02;94.69
75088;HTU21D;63664;44.868;40.600;2023-02-15T07:38:36;1.99;94.78
75088;HTU21D;63664;44.868;40.600;2023-02-15T07:41:14;1.94;94.88
75088;HTU21D;63664;44.868;40.600;2023-02-15T07:43:42;1.93;94.98
75088;HTU21D;63664;44.868;40.600;2023-02-15T07:46:15;1.91;95.04
75088;HTU21D;63664;44.868;40.600;2023-02-15T07:48:51;1.92;95.11
75088;HTU21D;63664;44.868;40.600;2023-02-15T07:51:18;1.93;95.07
75088;HTU21D;63664;44.868;40.600;2023-02-15T07:53:44;1.92;95.05
75088;HTU21D;63664;44.868;40.600;2023-02-15T07:56:14;1.91;95.14
75088;HTU21D;63664;44.868;40.600;2023-02-15T07:58:41;1.96;95.14
75088;HTU21D;63664;44.868;40.600;2023-02-15T08:01:32;2.01;95.10
75088;HTU21D;63664;44.868;40.600;2023-02-15T08:04:02;2.06;94.98
75088;HTU21D;63664;44.868;40.600;2023-02-15T08:06:30;2.12;94.95
75088;HTU21D;63664;44.868;40.600;2023-02-15T08:08:57;2.24;94.90
75088;HTU21D;63664;44.868;40.600;2023-02-15T08:11:28;2.25;94.69
75088;HTU21D;63664;44.868;40.600;2023-02-15T08:14:03;2.30;94.70
75088;HTU21D;63664;44.868;40.600;2023-02-15T08:19:23;2.52;94.50
75088;HTU21D;63664;44.868;40.600;2023-02-15T08:22:05;2.66;94.16
75088;HTU21D;63664;44.868;40.600;2023-02-15T08:24:38;2.69;93.93
75088;HTU21D;63664;44.868;40.600;2023-02-15T08:27:10;2.71;93.96
75088;HTU21D;63664;44.868;40.600;2023-02-15T08:29:38;2.72;94.02
75088;HTU21D;63664;44.868;40.600;2023-02-15T08:32:12;2.78;94.03
75088;HTU21D;63664;44.868;40.600;2023-02-15T08:34:41;2.83;93.99
75088;HTU21D;63664;44.868;40.600;2023-02-15T08:37:10;2.87;93.90
75088;HTU21D;63664;44.868;40.600;2023-02-15T08:39:36;2.79;93.88
75088;HTU21D;63664;44.868;40.600;2023-02-15T08:42:07;2.66;94.01
75088;HTU21D;63664;44.868;40.600;2023-02-15T08:44:39;2.49;94.36
75088;HTU21D;63664;44.868;40.600;2023-02-15T08:47:05;2.36;94.66
75088;HTU21D;63664;44.868;40.600;2023-02-15T08:49:32;2.25;94.86
75088;HTU21D;63664;44.868;40.600;2023-02-15T08:51:58;2.14;95.04
75088;HTU21D;63664;44.868;40.600;2023-02-15T08:54:25;2.05;95.17
75088;HTU21D;63664;44.868;40.600;2023-02-15T08:56:52;1.95;95.33
75088;HTU21D;63664;44.868;40.600;2023-02-15T08:59:22;1.88;95.38
75088;HTU21D;63664;44.868;40.600;2023-02-15T09:01:51;1.82;95.45
75088;HTU21D;63664;44.868;40.600;2023-02-15T09:04:19;1.81;95.46
75088;HTU21D;63664;44.868;40.600;2023-02-15T09:06:47;1.82;95.42
75088;HTU21D;63664;44.868;40.600;2023-02-15T09:09:19;1.79;95.41
75088;HTU21D;63664;44.868;40.600;2023-02-15T09:11:49;1.76;95.43
75088;HTU21D;63664;44.868;40.600;2023-02-15T09:14:20;1.79;95.41
75088;HTU21D;63664;44.868;40.600;2023-02-15T09:16:51;1.83;95.33
75088;HTU21D;63664;44.868;40.600;2023-02-15T09:19:21;1.88;95.23
75088;HTU21D;63664;44.868;40.600;2023-02-15T09:21:48;1.97;95.07
75088;HTU21D;63664;44.868;40.600;2023-02-15T09:24:16;2.05;94.90
75088;HTU21D;63664;44.868;40.600;2023-02-15T09:26:46;2.02;94.77
75088;HTU21D;63664;44.868;40.600;2023-02-15T09:29:14;2.01;94.81
75088;HTU21D;63664;44.868;40.600;2023-02-15T09:31:44;2.00;94.87
75088;HTU21D;63664;44.868;40.600;2023-02-15T09:34:15;2.02;94.85
75088;HTU21D;63664;44.868;40.600;2023-02-15T09:36:46;2.05;94.83
75088;HTU21D;63664;44.868;40.600;2023-02-15T09:39:21;2.02;94.81
75088;HTU21D;63664;44.868;40.600;2023-02-15T09:53:54;1.78;95.20
75088;HTU21D;63664;44.868;40.600;2023-02-15T09:56:36;1.72;95.20
75088;HTU21D;63664;44.868;40.600;2023-02-15T10:01:45;1.53;95.52
75088;HTU21D;63664;44.868;40.600;2023-02-15T10:07:37;1.60;95.49
75088;HTU21D;63664;44.868;40.600;2023-02-15T10:13:44;1.76;95.04
75088;HTU21D;63664;44.868;40.600;2023-02-15T10:24:04;2.11;94.53
75088;HTU21D;63664;44.868;40.600;2023-02-15T10:26:45;2.24;94.40
75088;HTU21D;63664;44.868;40.600;2023-02-15T10:34:39;2.44;93.96
75088;HTU21D;63664;44.868;40.600;2023-02-15T10:37:33;2.46;93.96
75088;HTU21D;63664;44.868;40.600;2023-02-15T10:42:59;2.40;93.91
75088;HTU21D;63664;44.868;40.600;2023-02-15T10:45:49;2.29;94.17
75088;HTU21D;63664;44.868;40.600;2023-02-15T10:51:15;2.12;94.69
75088;HTU21D;63664;44.868;40.600;2023-02-15T10:56:45;2.09;94.78
75088;HTU21D;63664;44.868;40.600;2023-02-15T11:08:00;2.20;94.58
75088;HTU21D;63664;44.868;40.600;2023-02-15T11:10:47;2.24;94.43
75088;HTU21D;63664;44.868;40.600;2023-02-15T11:13:24;2.34;94.36
75088;HTU21D;63664;44.868;40.600;2023-02-15T11:16:00;2.46;94.23
75088;HTU21D;63664;44.868;40.600;2023-02-15T11:18:36;2.55;93.95
75088;HTU21D;63664;44.868;40.600;2023-02-15T11:23:53;2.43;93.89
75088;HTU21D;63664;44.868;40.600;2023-02-15T11:26:43;2.32;94.06
75088;HTU21D;63664;44.868;40.600;2023-02-15T11:31:51;2.02;94.46
75088;HTU21D;63664;44.868;40.600;2023-02-15T11:37:01;1.91;94.76
75088;HTU21D;63664;44.868;40.600;2023-02-15T11:39:34;1.84;94.78
75088;HTU21D;63664;44.868;40.600;2023-02-15T11:42:16;1.79;94.88
75088;HTU21D;63664;44.868;40.600;2023-02-15T11:44:56;1.79;94.85
75088;HTU21D;63664;44.868;40.600;2023-02-15T11:47:26;1.69;94.90
75088;HTU21D;63664;44.868;40.600;2023-02-15T11:49:56;1.63;95.01
75088;HTU21D;63664;44.868;40.600;2023-02-15T11:52:22;1.61;95.03
75088;HTU21D;63664;44.868;40.600;2023-02-15T11:54:50;1.60;95.01
75088;HTU21D;63664;44.868;40.600;2023-02-15T11:57:28;1.57;95.00
75088;HTU21D;63664;44.868;40.600;2023-02-15T12:02:53;1.61;94.93
75088;HTU21D;63664;44.868;40.600;2023-02-15T12:05:24;1.61;94.87
75088;HTU21D;63664;44.868;40.600;2023-02-15T12:08:09;1.58;94.84
75088;HTU21D;63664;44.868;40.600;2023-02-15T12:10:42;1.65;94.88
75088;HTU21D;63664;44.868;40.600;2023-02-15T12:13:18;1.65;94.79
75088;HTU21D;63664;44.868;40.600;2023-02-15T12:15:48;1.66;94.81
75088;HTU21D;63664;44.868;40.600;2023-02-15T12:21:28;1.68;94.71
75088;HTU21D;63664;44.868;40.600;2023-02-15T12:24:23;1.63;94.71
75088;HTU21D;63664;44.868;40.600;2023-02-15T12:27:20;1.56;94.82
75088;HTU21D;63664;44.868;40.600;2023-02-15T12:30:05;1.50;94.97
75088;HTU21D;63664;44.868;40.600;2023-02-15T12:32:35;1.42;95.07
75088;HTU21D;63664;44.868;40.600;2023-02-15T12:35:18;1.39;95.10
75088;HTU21D;63664;44.868;40.600;2023-02-15T12:38:43;1.39;95.15
75088;HTU21D;63664;44.868;40.600;2023-02-15T12:40:47;1.38;95.10
75088;HTU21D;63664;44.868;40.600;2023-02-15T12:43:36;1.34;94.99
75088;HTU21D;63664;44.868;40.600;2023-02-15T12:46:23;1.28;95.08
75088;HTU21D;63664;44.868;40.600;2023-02-15T12:49:18;1.28;95.09
75088;HTU21D;63664;44.868;40.600;2023-02-15T12:51:54;1.32;95.02
75088;HTU21D;63664;44.868;40.600;2023-02-15T12:56:51;1.26;95.04
75088;HTU21D;63664;44.868;40.600;2023-02-15T12:59:18;1.24;95.03
75088;HTU21D;63664;44.868;40.600;2023-02-15T13:01:49;1.23;95.07
75088;HTU21D;63664;44.868;40.600;2023-02-15T13:04:28;1.25;95.01
75088;HTU21D;63664;44.868;40.600;2023-02-15T13:07:01;1.25;94.96
75088;HTU21D;63664;44.868;40.600;2023-02-15T13:12:22;1.27;94.87
75088;HTU21D;63664;44.868;40.600;2023-02-15T13:14:54;1.32;94.83
75088;HTU21D;63664;44.868;40.600;2023-02-15T13:17:35;1.38;94.72
75088;HTU21D;63664;44.868;40.600;2023-02-15T13:20:26;1.46;94.62
75088;HTU21D;63664;44.868;40.600;2023-02-15T13:23:04;1.57;94.47
75088;HTU21D;63664;44.868;40.600;2023-02-15T13:25:44;1.68;94.24
75088;HTU21D;63664;44.868;40.600;2023-02-15T13:28:15;1.70;94.06
75088;HTU21D;63664;44.868;40.600;2023-02-15T13:30:46;1.66;94.01
75088;HTU21D;63664;44.868;40.600;2023-02-15T13:41:15;1.39;94.40
75088;HTU21D;63664;44.868;40.600;2023-02-15T13:44:12;1.28;94.51
75088;HTU21D;63664;44.868;40.600;2023-02-15T13:47:05;1.24;94.58
75088;HTU21D;63664;44.868;40.600;2023-02-15T13:53:18;1.13;94.58
75088;HTU21D;63664;44.868;40.600;2023-02-15T13:56:04;1.05;94.62
75088;HTU21D;63664;44.868;40.600;2023-02-15T13:58:46;1.01;94.72
75088;HTU21D;63664;44.868;40.600;2023-02-15T14:01:34;0.98;94.71
75088;HTU21D;63664;44.868;40.600;2023-02-15T14:07:09;0.94;94.61
75088;HTU21D;63664;44.868;40.600;2023-02-15T14:10:05;0.96;94.53
75088;HTU21D;63664;44.868;40.600;2023-02-15T14:23:59;0.83;94.36
75088;HTU21D;63664;44.868;40.600;2023-02-15T14:26:39;0.79;94.35
75088;HTU21D;63664;44.868;40.600;2023-02-15T14:31:59;0.67;94.41
75088;HTU21D;63664;44.868;40.600;2023-02-15T14:35:03;0.65;94.40
75088;HTU21D;63664;44.868;40.600;2023-02-15T14:37:53;0.62;94.39
75088;HTU21D;63664;44.868;40.600;2023-02-15T14:48:38;0.47;94.46
75088;HTU21D;63664;44.868;40.600;2023-02-15T14:52:16;0.48;94.46
75088;HTU21D;63664;44.868;40.600;2023-02-15T14:57:32;0.44;94.43
75088;HTU21D;63664;44.868;40.600;2023-02-15T14:59:57;0.40;94.43
75088;HTU21D;63664;44.868;40.600;2023-02-15T15:02:43;0.38;94.45
75088;HTU21D;63664;44.868;40.600;2023-02-15T15:05:33;0.37;94.45
75088;HTU21D;63664;44.868;40.600;2023-02-15T15:08:19;0.35;94.43
75088;HTU21D;63664;44.868;40.600;2023-02-15T15:10:50;0.33;94.48
75088;HTU21D;63664;44.868;40.600;2023-02-15T15:19:09;0.27;94.47
75088;HTU21D;63664;44.868;40.600;2023-02-15T15:41:40;0.08;94.52
75088;HTU21D;63664;44.868;40.600;2023-02-15T15:47:28;0.07;94.56
75088;HTU21D;63664;44.868;40.600;2023-02-15T15:50:00;0.08;94.57
75088;HTU21D;63664;44.868;40.600;2023-02-15T15:52:31;0.08;94.55
75088;HTU21D;63664;44.868;40.600;2023-02-15T15:55:15;0.06;94.55
75088;HTU21D;63664;44.868;40.600;2023-02-15T15:57:48;0.05;94.58
75088;HTU21D;63664;44.868;40.600;2023-02-15T16:00:33;0.04;94.60
75088;HTU21D;63664;44.868;40.600;2023-02-15T16:03:00;0.02;94.66
75088;HTU21D;63664;44.868;40.600;2023-02-15T16:05:37;0.01;94.71
75088;HTU21D;63664;44.868;40.600;2023-02-15T16:08:06;-0.00;94.75
75088;HTU21D;63664;44.868;40.600;2023-02-15T16:10:39;-0.02;94.78
75088;HTU21D;63664;44.868;40.600;2023-02-15T16:13:07;-0.02;94.78
75088;HTU21D;63664;44.868;40.600;2023-02-15T16:15:54;-0.03;94.80
75088;HTU21D;63664;44.868;40.600;2023-02-15T16:18:26;-0.03;94.79
75088;HTU21D;63664;44.868;40.600;2023-02-15T16:21:03;-0.06;94.82
75088;HTU21D;63664;44.868;40.600;2023-02-15T16:29:25;-0.05;94.85
75088;HTU21D;63664;44.868;40.600;2023-02-15T16:32:18;-0.06;94.85
75088;HTU21D;63664;44.868;40.600;2023-02-15T16:35:01;-0.09;94.94
75088;HTU21D;63664;44.868;40.600;2023-02-15T16:37:34;-0.09;94.98
75088;HTU21D;63664;44.868;40.600;2023-02-15T16:40:01;-0.09;95.03
75088;HTU21D;63664;44.868;40.600;2023-02-15T16:42:36;-0.10;95.10
75088;HTU21D;63664;44.868;40.600;2023-02-15T16:45:12;-0.12;95.17
75088;HTU21D;63664;44.868;40.600;2023-02-15T16:47:42;-0.12;95.24
75088;HTU21D;63664;44.868;40.600;2023-02-15T16:50:32;-0.12;95.22
75088;HTU21D;63664;44.868;40.600;2023-02-15T16:53:04;-0.10;95.32
75088;HTU21D;63664;44.868;40.600;2023-02-15T16:55:40;-0.13;95.30
75088;HTU21D;63664;44.868;40.600;2023-02-15T16:58:14;-0.11;95.26
75088;HTU21D;63664;44.868;40.600;2023-02-15T17:00:42;-0.12;95.27
75088;HTU21D;63664;44.868;40.600;2023-02-15T17:06:03;-0.10;95.34
75088;HTU21D;63664;44.868;40.600;2023-02-15T17:08:45;-0.12;95.40
75088;HTU21D;63664;44.868;40.600;2023-02-15T17:11:21;-0.12;95.39
75088;HTU21D;63664;44.868;40.600;2023-02-15T17:16:54;-0.13;95.46
75088;HTU21D;63664;44.868;40.600;2023-02-15T17:19:32;-0.14;95.46
75088;HTU21D;63664;44.868;40.600;2023-02-15T17:22:04;-0.16;95.81
75088;HTU21D;63664;44.868;40.600;2023-02-15T17:24:41;-0.19;95.76
75088;HTU21D;63664;44.868;40.600;2023-02-15T17:27:19;-0.19;95.74
75088;HTU21D;63664;44.868;40.600;2023-02-15T17:29:50;-0.20;95.80
75088;HTU21D;63664;44.868;40.600;2023-02-15T17:32:25;-0.21;95.73
75088;HTU21D;63664;44.868;40.600;2023-02-15T17:35:06;-0.21;95.72
75088;HTU21D;63664;44.868;40.600;2023-02-15T17:42:48;-0.22;95.68
75088;HTU21D;63664;44.868;40.600;2023-02-15T17:45:17;-0.22;95.75
75088;HTU21D;63664;44.868;40.600;2023-02-15T17:47:48;-0.21;95.75
75088;HTU21D;63664;44.868;40.600;2023-02-15T17:50:26;-0.21;95.68
75088;HTU21D;63664;44.868;40.600;2023-02-15T17:52:56;-0.21;95.63
75088;HTU21D;63664;44.868;40.600;2023-02-15T17:55:23;-0.20;95.72
75088;HTU21D;63664;44.868;40.600;2023-02-15T18:00:36;-0.23;95.71
75088;HTU21D;63664;44.868;40.600;2023-02-15T18:03:28;-0.24;95.68
75088;HTU21D;63664;44.868;40.600;2023-02-15T18:06:14;-0.22;95.66
75088;HTU21D;63664;44.868;40.600;2023-02-15T18:09:01;-0.24;95.68
75088;HTU21D;63664;44.868;40.600;2023-02-15T18:11:45;-0.27;95.72
75088;HTU21D;63664;44.868;40.600;2023-02-15T18:14:13;-0.27;95.75
75088;HTU21D;63664;44.868;40.600;2023-02-15T18:16:43;-0.26;95.75
75088;HTU21D;63664;44.868;40.600;2023-02-15T18:19:16;-0.27;95.74
75088;HTU21D;63664;44.868;40.600;2023-02-15T18:21:44;-0.26;95.78
75088;HTU21D;63664;44.868;40.600;2023-02-15T18:24:25;-0.28;95.78
75088;HTU21D;63664;44.868;40.600;2023-02-15T18:26:55;-0.28;95.85
75088;HTU21D;63664;44.868;40.600;2023-02-15T18:29:21;-0.32;96.01
75088;HTU21D;63664;44.868;40.600;2023-02-15T18:31:54;-0.36;95.90
75088;HTU21D;63664;44.868;40.600;2023-02-15T18:34:31;-0.38;95.91
75088;HTU21D;63664;44.868;40.600;2023-02-15T18:37:00;-0.44;96.07
75088;HTU21D;63664;44.868;40.600;2023-02-15T18:39:41;-0.55;96.13
75088;HTU21D;63664;44.868;40.600;2023-02-15T18:42:20;-0.62;96.24
75088;HTU21D;63664;44.868;40.600;2023-02-15T18:44:49;-0.72;96.30
75088;HTU21D;63664;44.868;40.600;2023-02-15T18:47:21;-0.76;96.40
75088;HTU21D;63664;44.868;40.600;2023-02-15T18:49:50;-0.84;96.43
75088;HTU21D;63664;44.868;40.600;2023-02-15T18:52:22;-0.91;96.38
75088;HTU21D;63664;44.868;40.600;2023-02-15T18:54:56;-1.02;96.39